sensor_id;sensor_type;location;lat;lon;timestamp;P1;durP1;ratioP1;P2;durP2;ratioP2
54464;SDS011;40374;49.480;20.016;2023-08-01T00:03:05;24.67;;;12.57;;
54464;SDS011;40374;49.480;20.016;2023-08-01T00:06:31;28.75;;;12.75;;
54464;SDS011;40374;49.480;20.016;2023-08-01T00:09:59;24.13;;;12.32;;
54464;SDS011;40374;49.480;20.016;2023-08-01T00:13:26;24.60;;;10.13;;
54464;SDS011;40374;49.480;20.016;2023-08-01T00:16:51;17.23;;;10.20;;
54464;SDS011;40374;49.480;20.016;2023-08-01T00:20:17;15.27;;;8.77;;
54464;SDS011;40374;49.480;20.016;2023-08-01T00:23:43;17.50;;;7.95;;
54464;SDS011;40374;49.480;20.016;2023-08-01T00:27:09;13.48;;;8.05;;
54464;SDS011;40374;49.480;20.016;2023-08-01T00:30:35;16.00;;;9.20;;
54464;SDS011;40374;49.480;20.016;2023-08-01T00:34:01;21.95;;;13.25;;
54464;SDS011;40374;49.480;20.016;2023-08-01T00:37:27;22.98;;;13.23;;
54464;SDS011;40374;49.480;20.016;2023-08-01T00:40:54;27.58;;;12.50;;
54464;SDS011;40374;49.480;20.016;2023-08-01T00:44:19;30.02;;;12.70;;
54464;SDS011;40374;49.480;20.016;2023-08-01T00:47:45;17.65;;;10.07;;
54464;SDS011;40374;49.480;20.016;2023-08-01T00:50:19;17.75;;;11.65;;
54464;SDS011;40374;49.480;20.016;2023-08-01T00:53:45;18.45;;;10.73;;
54464;SDS011;40374;49.480;20.016;2023-08-01T00:57:11;19.98;;;12.65;;
54464;SDS011;40374;49.480;20.016;2023-08-01T01:00:37;22.15;;;13.73;;
54464;SDS011;40374;49.480;20.016;2023-08-01T01:03:27;20.15;;;12.00;;
54464;SDS011;40374;49.480;20.016;2023-08-01T01:06:57;19.15;;;12.43;;
54464;SDS011;40374;49.480;20.016;2023-08-01T01:10:26;22.33;;;12.57;;
54464;SDS011;40374;49.480;20.016;2023-08-01T01:13:52;18.10;;;11.65;;
54464;SDS011;40374;49.480;20.016;2023-08-01T01:17:18;25.80;;;12.85;;
54464;SDS011;40374;49.480;20.016;2023-08-01T01:20:44;21.90;;;11.27;;
54464;SDS011;40374;49.480;20.016;2023-08-01T01:24:29;31.33;;;13.13;;
54464;SDS011;40374;49.480;20.016;2023-08-01T01:27:58;19.67;;;12.32;;
54464;SDS011;40374;49.480;20.016;2023-08-01T01:31:24;27.42;;;12.85;;
54464;SDS011;40374;49.480;20.016;2023-08-01T01:34:52;19.92;;;12.80;;
54464;SDS011;40374;49.480;20.016;2023-08-01T01:38:18;22.65;;;13.63;;
54464;SDS011;40374;49.480;20.016;2023-08-01T01:41:46;26.10;;;14.40;;
54464;SDS011;40374;49.480;20.016;2023-08-01T01:45:12;27.70;;;13.55;;
54464;SDS011;40374;49.480;20.016;2023-08-01T01:48:38;26.10;;;15.07;;
54464;SDS011;40374;49.480;20.016;2023-08-01T01:51:47;40.75;;;17.52;;
54464;SDS011;40374;49.480;20.016;2023-08-01T01:54:27;28.75;;;16.23;;
54464;SDS011;40374;49.480;20.016;2023-08-01T01:57:53;31.88;;;15.02;;
54464;SDS011;40374;49.480;20.016;2023-08-01T02:01:19;32.30;;;14.70;;
54464;SDS011;40374;49.480;20.016;2023-08-01T02:04:46;29.30;;;14.43;;
54464;SDS011;40374;49.480;20.016;2023-08-01T02:08:12;27.85;;;14.70;;
54464;SDS011;40374;49.480;20.016;2023-08-01T02:11:38;26.75;;;14.48;;
54464;SDS011;40374;49.480;20.016;2023-08-01T02:15:04;26.08;;;14.73;;
54464;SDS011;40374;49.480;20.016;2023-08-01T02:18:30;27.15;;;14.95;;
54464;SDS011;40374;49.480;20.016;2023-08-01T02:20:58;26.88;;;14.10;;
54464;SDS011;40374;49.480;20.016;2023-08-01T02:23:56;26.52;;;15.02;;
54464;SDS011;40374;49.480;20.016;2023-08-01T02:27:22;24.05;;;12.43;;
54464;SDS011;40374;49.480;20.016;2023-08-01T02:30:48;16.38;;;11.05;;
54464;SDS011;40374;49.480;20.016;2023-08-01T02:34:14;15.68;;;9.85;;
54464;SDS011;40374;49.480;20.016;2023-08-01T02:37:40;13.85;;;9.10;;
54464;SDS011;40374;49.480;20.016;2023-08-01T02:40:29;18.80;;;9.73;;
54464;SDS011;40374;49.480;20.016;2023-08-01T02:43:29;16.35;;;10.70;;
54464;SDS011;40374;49.480;20.016;2023-08-01T02:46:56;22.67;;;11.00;;
54464;SDS011;40374;49.480;20.016;2023-08-01T02:50:24;22.48;;;12.38;;
54464;SDS011;40374;49.480;20.016;2023-08-01T02:53:10;19.88;;;11.60;;
54464;SDS011;40374;49.480;20.016;2023-08-01T02:56:36;34.15;;;19.90;;
54464;SDS011;40374;49.480;20.016;2023-08-01T03:00:02;26.70;;;15.48;;
54464;SDS011;40374;49.480;20.016;2023-08-01T03:03:18;14.05;;;9.15;;
54464;SDS011;40374;49.480;20.016;2023-08-01T03:06:03;13.95;;;7.97;;
54464;SDS011;40374;49.480;20.016;2023-08-01T03:09:29;19.48;;;10.15;;
54464;SDS011;40374;49.480;20.016;2023-08-01T03:13:03;14.40;;;9.45;;
54464;SDS011;40374;49.480;20.016;2023-08-01T03:16:31;29.33;;;15.20;;
54464;SDS011;40374;49.480;20.016;2023-08-01T03:19:57;24.02;;;13.32;;
54464;SDS011;40374;49.480;20.016;2023-08-01T03:23:23;27.65;;;13.02;;
54464;SDS011;40374;49.480;20.016;2023-08-01T03:26:49;33.75;;;14.73;;
54464;SDS011;40374;49.480;20.016;2023-08-01T03:30:15;60.50;;;19.75;;
54464;SDS011;40374;49.480;20.016;2023-08-01T03:32:59;52.63;;;19.33;;
54464;SDS011;40374;49.480;20.016;2023-08-01T03:36:25;77.88;;;23.52;;
54464;SDS011;40374;49.480;20.016;2023-08-01T03:39:47;71.60;;;22.98;;
54464;SDS011;40374;49.480;20.016;2023-08-01T03:43:13;59.47;;;21.73;;
54464;SDS011;40374;49.480;20.016;2023-08-01T03:46:40;49.00;;;18.60;;
54464;SDS011;40374;49.480;20.016;2023-08-01T03:50:06;45.08;;;19.00;;
54464;SDS011;40374;49.480;20.016;2023-08-01T03:53:34;46.35;;;18.35;;
54464;SDS011;40374;49.480;20.016;2023-08-01T03:57:00;39.67;;;16.48;;
54464;SDS011;40374;49.480;20.016;2023-08-01T03:59:35;44.78;;;18.40;;
54464;SDS011;40374;49.480;20.016;2023-08-01T04:02:03;41.45;;;16.38;;
54464;SDS011;40374;49.480;20.016;2023-08-01T04:05:15;33.33;;;15.20;;
54464;SDS011;40374;49.480;20.016;2023-08-01T04:08:42;27.23;;;12.02;;
54464;SDS011;40374;49.480;20.016;2023-08-01T04:11:49;22.15;;;11.30;;
54464;SDS011;40374;49.480;20.016;2023-08-01T04:14:16;19.63;;;11.60;;
54464;SDS011;40374;49.480;20.016;2023-08-01T04:17:43;22.60;;;11.82;;
54464;SDS011;40374;49.480;20.016;2023-08-01T04:21:08;46.20;;;12.60;;
54464;SDS011;40374;49.480;20.016;2023-08-01T04:24:36;72.07;;;30.40;;
54464;SDS011;40374;49.480;20.016;2023-08-01T04:27:55;55.30;;;18.70;;
54464;SDS011;40374;49.480;20.016;2023-08-01T04:30:23;52.83;;;18.38;;
54464;SDS011;40374;49.480;20.016;2023-08-01T04:32:52;48.50;;;15.00;;
54464;SDS011;40374;49.480;20.016;2023-08-01T04:35:19;35.58;;;14.73;;
54464;SDS011;40374;49.480;20.016;2023-08-01T04:37:46;37.97;;;13.40;;
54464;SDS011;40374;49.480;20.016;2023-08-01T04:41:12;24.20;;;10.48;;
54464;SDS011;40374;49.480;20.016;2023-08-01T04:43:40;41.72;;;11.20;;
54464;SDS011;40374;49.480;20.016;2023-08-01T04:46:07;20.02;;;9.77;;
54464;SDS011;40374;49.480;20.016;2023-08-01T04:49:33;24.88;;;9.90;;
54464;SDS011;40374;49.480;20.016;2023-08-01T04:52:59;28.02;;;10.48;;
54464;SDS011;40374;49.480;20.016;2023-08-01T04:56:25;23.60;;;9.27;;
54464;SDS011;40374;49.480;20.016;2023-08-01T04:59:51;21.05;;;9.50;;
54464;SDS011;40374;49.480;20.016;2023-08-01T05:03:18;16.23;;;10.10;;
54464;SDS011;40374;49.480;20.016;2023-08-01T05:06:44;22.00;;;10.70;;
54464;SDS011;40374;49.480;20.016;2023-08-01T05:10:10;21.35;;;11.10;;
54464;SDS011;40374;49.480;20.016;2023-08-01T05:13:36;24.77;;;12.82;;
54464;SDS011;40374;49.480;20.016;2023-08-01T05:17:02;22.85;;;13.45;;
54464;SDS011;40374;49.480;20.016;2023-08-01T05:19:30;12.82;;;8.98;;
54464;SDS011;40374;49.480;20.016;2023-08-01T05:22:03;12.63;;;5.60;;
54464;SDS011;40374;49.480;20.016;2023-08-01T05:24:31;14.10;;;6.53;;
54464;SDS011;40374;49.480;20.016;2023-08-01T05:26:58;10.40;;;5.38;;
54464;SDS011;40374;49.480;20.016;2023-08-01T05:29:34;13.82;;;6.45;;
54464;SDS011;40374;49.480;20.016;2023-08-01T05:32:03;13.13;;;7.38;;
54464;SDS011;40374;49.480;20.016;2023-08-01T05:34:31;9.18;;;6.45;;
54464;SDS011;40374;49.480;20.016;2023-08-01T05:36:58;14.30;;;7.55;;
